createdAt,value
2023-04-09T00:00:41.776Z,95.7
2023-04-09T00:03:07.868Z,95.7
2023-04-09T00:05:32.996Z,95.7
2023-04-09T00:07:59.081Z,95.6
2023-04-09T00:10:25.178Z,95.6
2023-04-09T00:12:51.276Z,95.6
2023-04-09T00:15:17.365Z,95.8
2023-04-09T00:17:43.471Z,95.8
2023-04-09T00:20:09.569Z,96.1
2023-04-09T00:22:35.645Z,96
2023-04-09T00:25:01.756Z,96
2023-04-09T00:27:27.856Z,96.1
2023-04-09T00:29:53.938Z,96.3
2023-04-09T00:32:20.040Z,96.7
2023-04-09T00:34:46.124Z,96.5
2023-04-09T00:37:11.256Z,96.8
2023-04-09T00:39:37.347Z,97
2023-04-09T00:42:03.432Z,97
2023-04-09T00:44:29.524Z,97.1
2023-04-09T00:46:55.622Z,97.4
2023-04-09T00:49:21.716Z,97.4
2023-04-09T00:51:47.825Z,97.4
2023-04-09T00:54:13.919Z,97.5
2023-04-09T00:56:40.022Z,97.7
2023-04-09T00:59:06.325Z,97.8
2023-04-09T01:01:32.209Z,97.8
2023-04-09T01:03:58.316Z,97.7
2023-04-09T01:06:24.399Z,97.7
2023-04-09T01:08:49.509Z,97.8
2023-04-09T01:11:15.628Z,97.8
2023-04-09T01:13:41.723Z,97.8
2023-04-09T01:16:07.792Z,97.7
2023-04-09T01:18:33.878Z,97.6
2023-04-09T01:20:59.976Z,97.5
2023-04-09T01:23:26.077Z,97.3
2023-04-09T01:25:52.180Z,97.3
2023-04-09T01:30:44.379Z,97.4
2023-04-09T01:33:10.470Z,97.6
2023-04-09T01:35:36.567Z,97.7
2023-04-09T01:38:02.654Z,97.7
2023-04-09T01:40:27.784Z,97.9
2023-04-09T01:42:53.855Z,97.9
2023-04-09T01:45:20.015Z,97.6
2023-04-09T01:47:46.061Z,97.6
2023-04-09T01:50:12.157Z,97.6
2023-04-09T01:52:38.244Z,97.8
2023-04-09T01:55:04.343Z,97.9
2023-04-09T01:57:30.425Z,98
2023-04-09T01:59:56.534Z,98
2023-04-09T02:02:22.631Z,98
2023-04-09T02:04:48.731Z,98
2023-04-09T02:07:14.821Z,98
2023-04-09T02:09:40.928Z,98.1
2023-04-09T02:12:06.051Z,98
2023-04-09T02:14:32.130Z,98.1
2023-04-09T02:16:58.213Z,98.3
2023-04-09T02:19:24.344Z,98.4
2023-04-09T02:21:50.409Z,98.4
2023-04-09T02:24:16.496Z,98.5
2023-04-09T02:26:42.601Z,98.8
2023-04-09T02:29:08.711Z,98.8
2023-04-09T02:31:34.790Z,98.9
2023-04-09T02:34:00.917Z,99
2023-04-09T02:36:26.985Z,99.1
2023-04-09T02:38:53.091Z,99.1
2023-04-09T02:41:19.221Z,99.1
2023-04-09T02:43:44.294Z,99.1
2023-04-09T02:46:10.395Z,99
2023-04-09T02:48:36.505Z,99.3
2023-04-09T02:51:02.578Z,99.4
2023-04-09T02:53:28.664Z,99.4
2023-04-09T02:55:54.765Z,99.2
2023-04-09T02:58:20.885Z,99.2
2023-04-09T03:00:46.969Z,99.3
2023-04-09T03:03:13.060Z,99.4
2023-04-09T03:05:39.148Z,99.4
2023-04-09T03:08:05.284Z,99.5
2023-04-09T03:10:31.339Z,99.7
2023-04-09T03:12:57.430Z,99.6
2023-04-09T03:15:22.544Z,99.4
2023-04-09T03:17:48.640Z,99.4
2023-04-09T03:20:14.733Z,99.4
2023-04-09T03:22:40.846Z,99.4
2023-04-09T03:25:06.951Z,99.4
2023-04-09T03:27:33.027Z,99.6
2023-04-09T03:29:58.160Z,99.7
2023-04-09T03:32:24.246Z,99.8
2023-04-09T03:34:50.395Z,99.7
2023-04-09T03:37:16.430Z,99.7
2023-04-09T03:39:42.533Z,99.7
2023-04-09T03:42:08.636Z,99.8
2023-04-09T03:44:34.741Z,99.9
2023-04-09T03:47:00.823Z,99.8
2023-04-09T03:49:26.910Z,99.9
2023-04-09T03:51:53.005Z,99.9
2023-04-09T03:54:19.090Z,99.9
2023-04-09T03:56:45.201Z,99.9
2023-04-09T03:59:11.301Z,100
2023-04-09T04:01:36.413Z,100
2023-04-09T04:04:02.505Z,100
2023-04-09T04:06:28.618Z,100
2023-04-09T04:08:54.703Z,100
2023-04-09T04:11:20.802Z,99.9
2023-04-09T04:13:46.895Z,100
2023-04-09T04:16:13.047Z,100
2023-04-09T04:18:39.063Z,100
2023-04-09T04:21:05.183Z,100
2023-04-09T04:23:31.286Z,100
2023-04-09T04:25:57.381Z,100
2023-04-09T04:28:23.464Z,100
2023-04-09T04:30:49.557Z,100
2023-04-09T04:33:14.669Z,100
2023-04-09T04:35:40.763Z,100
2023-04-09T04:38:06.874Z,100
2023-04-09T04:40:33.002Z,100
2023-04-09T04:42:59.090Z,100
2023-04-09T04:45:25.147Z,100
2023-04-09T04:47:51.240Z,100
2023-04-09T04:50:17.343Z,100
2023-04-09T04:52:43.435Z,100
2023-04-09T04:55:09.544Z,100
2023-04-09T04:57:35.627Z,100
2023-04-09T05:00:01.747Z,100
2023-04-09T05:02:27.819Z,100
2023-04-09T05:04:52.938Z,100
2023-04-09T05:07:19.029Z,100
2023-04-09T05:09:45.131Z,100
2023-04-09T05:12:11.220Z,100
2023-04-09T05:14:37.328Z,99.8
2023-04-09T05:17:03.413Z,99.6
2023-04-09T05:19:29.507Z,99.5
2023-04-09T05:21:55.597Z,99.5
2023-04-09T05:24:21.689Z,98.9
2023-04-09T05:26:47.783Z,98.5
2023-04-09T05:29:13.909Z,98.4
2023-04-09T05:31:39.979Z,98.3
2023-04-09T05:34:06.065Z,97.9
2023-04-09T05:36:31.207Z,97.5
2023-04-09T05:38:57.316Z,97
2023-04-09T05:41:23.388Z,96.8
2023-04-09T05:43:49.509Z,96.8
2023-04-09T05:46:15.584Z,96.9
2023-04-09T05:48:41.667Z,96.9
2023-04-09T05:51:07.760Z,96.8
2023-04-09T05:53:33.857Z,97
2023-04-09T05:55:59.961Z,96.9
2023-04-09T05:58:26.092Z,97
2023-04-09T06:00:52.156Z,97
2023-04-09T06:03:18.247Z,97
2023-04-09T06:05:44.340Z,96.9
2023-04-09T06:08:10.450Z,96.6
2023-04-09T06:10:36.541Z,96.2
2023-04-09T06:13:02.645Z,95.6
2023-04-09T06:15:28.725Z,95.6
2023-04-09T06:17:54.864Z,95.5
2023-04-09T06:20:19.941Z,95.1
2023-04-09T06:22:46.041Z,94.9
2023-04-09T06:25:12.125Z,94.4
2023-04-09T06:27:38.222Z,94.3
2023-04-09T06:30:04.316Z,93.9
2023-04-09T06:32:30.410Z,93.6
2023-04-09T06:34:56.535Z,93.2
2023-04-09T06:37:22.609Z,92.8
2023-04-09T06:39:48.707Z,92.5
2023-04-09T06:42:14.814Z,92.2
2023-04-09T06:44:40.899Z,91.7
2023-04-09T06:47:06.997Z,91.7
2023-04-09T06:49:33.121Z,91.6
2023-04-09T06:51:58.190Z,91.2
2023-04-09T06:54:24.294Z,91.1
2023-04-09T06:56:50.387Z,90.7
2023-04-09T06:59:16.490Z,90.4
2023-04-09T07:01:42.571Z,90
2023-04-09T07:04:08.731Z,89.5
2023-04-09T07:06:34.886Z,89.1
2023-04-09T07:09:01.029Z,88.8
2023-04-09T07:11:26.982Z,88.4
2023-04-09T07:13:53.084Z,88.6
2023-04-09T07:16:19.193Z,87.9
2023-04-09T07:18:45.415Z,87.4
2023-04-09T07:21:11.470Z,87
2023-04-09T07:23:36.610Z,86.3
2023-04-09T07:26:02.775Z,86
2023-04-09T07:28:28.781Z,83
2023-04-09T07:30:54.781Z,82.9
2023-04-09T07:33:20.954Z,80.9
2023-04-09T07:35:46.997Z,80.7
2023-04-09T07:38:13.019Z,79.9
2023-04-09T07:40:39.214Z,79.5
2023-04-09T07:43:05.231Z,77.9
2023-04-09T07:45:31.319Z,78.1
2023-04-09T07:47:57.528Z,77.8
2023-04-09T07:50:23.633Z,78.1
2023-04-09T07:52:49.823Z,78
2023-04-09T07:55:14.861Z,78.6
2023-04-09T07:57:40.973Z,78.3
2023-04-09T08:00:07.141Z,78.3
2023-04-09T08:02:33.095Z,77.9
2023-04-09T08:04:59.121Z,78.3
2023-04-09T08:07:25.435Z,78
2023-04-09T08:09:51.398Z,77.8
2023-04-09T08:12:17.394Z,77.7
2023-04-09T08:14:43.687Z,77.5
2023-04-09T08:17:09.589Z,76.2
2023-04-09T08:19:35.864Z,75.7
2023-04-09T08:22:02.003Z,76
2023-04-09T08:24:28.008Z,76.6
2023-04-09T08:26:53.084Z,75.8
2023-04-09T08:29:19.258Z,74.5
2023-04-09T08:31:45.317Z,75
2023-04-09T08:34:11.390Z,74
2023-04-09T08:36:37.457Z,73.9
2023-04-09T08:39:03.471Z,73.6
2023-04-09T08:41:29.559Z,72.8
2023-04-09T08:43:55.700Z,72.7
2023-04-09T08:46:21.906Z,72.4
2023-04-09T08:48:47.942Z,72.7
2023-04-09T08:51:13.960Z,72.3
2023-04-09T08:53:40.052Z,71.1
2023-04-09T08:56:06.156Z,71.3
2023-04-09T08:58:31.239Z,70.9
2023-04-09T09:00:57.350Z,71.4
2023-04-09T09:03:23.436Z,70.5
2023-04-09T09:05:49.537Z,70.7
2023-04-09T09:08:15.830Z,71.7
2023-04-09T09:10:41.723Z,72.3
2023-04-09T09:13:07.857Z,72.3
2023-04-09T09:15:34.146Z,70.5
2023-04-09T09:18:00.180Z,69.7
2023-04-09T09:20:26.227Z,69.5
2023-04-09T09:22:52.272Z,69.3
2023-04-09T09:25:18.373Z,70.1
2023-04-09T09:27:44.437Z,69.9
2023-04-09T09:30:09.518Z,68.8
2023-04-09T09:32:35.773Z,69.3
2023-04-09T09:35:01.747Z,67.8
2023-04-09T09:37:27.794Z,68.6
2023-04-09T09:39:53.921Z,67.4
2023-04-09T09:42:19.967Z,66.8
2023-04-09T09:44:46.070Z,67.4
2023-04-09T09:47:12.169Z,67.5
2023-04-09T09:49:38.278Z,65.3
2023-04-09T09:52:04.366Z,64.3
2023-04-09T09:54:30.451Z,64
2023-04-09T09:56:56.568Z,64.6
2023-04-09T09:59:22.638Z,62.9
2023-04-09T10:01:47.756Z,61.8
2023-04-09T10:04:13.855Z,58.4
2023-04-09T10:06:39.941Z,59.5
2023-04-09T10:09:06.172Z,59.8
2023-04-09T10:11:32.150Z,60.6
2023-04-09T10:13:58.231Z,59.6
2023-04-09T10:16:24.330Z,59.2
2023-04-09T10:18:50.433Z,58
2023-04-09T10:21:16.521Z,59
2023-04-09T10:23:42.602Z,58
2023-04-09T10:26:08.709Z,57.9
2023-04-09T10:28:34.810Z,56.9
2023-04-09T10:31:00.901Z,57.2
2023-04-09T10:33:26.048Z,58.5
2023-04-09T10:35:52.148Z,58.4
2023-04-09T10:38:18.242Z,58
2023-04-09T10:40:44.364Z,58
2023-04-09T10:43:10.435Z,58.1
2023-04-09T10:45:36.513Z,58.9
2023-04-09T10:48:02.640Z,58.1
2023-04-09T10:50:28.692Z,59.1
2023-04-09T10:52:54.842Z,58.3
2023-04-09T10:55:20.916Z,55.8
2023-04-09T10:57:46.994Z,57.2
2023-04-09T11:00:13.116Z,57.4
2023-04-09T11:02:39.195Z,56.5
2023-04-09T11:05:04.280Z,57
2023-04-09T11:07:30.379Z,55.5
2023-04-09T11:09:56.496Z,55.3
2023-04-09T11:12:22.579Z,55.2
2023-04-09T11:14:48.668Z,55.3
2023-04-09T11:17:14.740Z,56.6
2023-04-09T11:19:40.850Z,55.3
2023-04-09T11:22:06.935Z,56.2
2023-04-09T11:24:33.024Z,55.5
2023-04-09T11:26:59.123Z,55.4
2023-04-09T11:29:25.231Z,56.3
2023-04-09T11:31:51.352Z,55
2023-04-09T11:34:17.404Z,52.1
2023-04-09T11:36:42.537Z,53.1
2023-04-09T11:39:07.638Z,52
2023-04-09T11:41:33.794Z,51.5
2023-04-09T11:43:59.825Z,52
2023-04-09T11:46:25.911Z,53
2023-04-09T11:48:52.031Z,51.3
2023-04-09T11:51:18.119Z,51.8
2023-04-09T11:53:44.211Z,50.2
2023-04-09T11:56:10.324Z,50.9
2023-04-09T11:58:36.392Z,50.8
2023-04-09T12:01:02.493Z,51.3
2023-04-09T12:03:28.605Z,51.2
2023-04-09T12:05:54.686Z,51.7
2023-04-09T12:08:20.791Z,50.8
2023-04-09T12:10:45.904Z,50.7
2023-04-09T12:13:12.005Z,51.5
2023-04-09T12:15:38.112Z,50.5
2023-04-09T12:18:04.190Z,50.1
2023-04-09T12:20:30.282Z,50
2023-04-09T12:22:56.375Z,49.7
2023-04-09T12:25:22.456Z,49.6
2023-04-09T12:27:48.570Z,49.9
2023-04-09T12:30:14.658Z,48.3
2023-04-09T12:32:40.751Z,49
2023-04-09T12:35:06.850Z,49.5
2023-04-09T12:37:32.935Z,48.5
2023-04-09T12:39:59.049Z,48
2023-04-09T12:42:24.190Z,47.9
2023-04-09T12:44:50.244Z,48.2
2023-04-09T12:47:16.327Z,47.7
2023-04-09T12:49:42.436Z,48.2
2023-04-09T12:52:08.535Z,49.2
2023-04-09T12:54:34.623Z,48.7
2023-04-09T12:57:00.725Z,48.6
2023-04-09T12:59:26.817Z,49.4
2023-04-09T13:01:52.919Z,50.1
2023-04-09T13:04:18.994Z,47.5
2023-04-09T13:06:45.109Z,47.1
2023-04-09T13:09:11.206Z,46.9
2023-04-09T13:11:37.295Z,47.4
2023-04-09T13:14:02.397Z,47.8
2023-04-09T13:16:28.509Z,48
2023-04-09T13:18:54.591Z,47.6
2023-04-09T13:21:20.684Z,48.6
2023-04-09T13:23:46.781Z,48.3
2023-04-09T13:26:12.874Z,48.1
2023-04-09T13:28:38.977Z,49
2023-04-09T13:31:05.084Z,49.2
2023-04-09T13:33:31.164Z,49.3
2023-04-09T13:35:57.283Z,49.6
2023-04-09T13:38:23.351Z,49.7
2023-04-09T13:40:49.447Z,49.2
2023-04-09T13:43:15.562Z,49.9
2023-04-09T13:45:40.647Z,49.9
2023-04-09T13:48:06.766Z,49.5
2023-04-09T13:50:32.857Z,49.3
2023-04-09T13:52:58.950Z,46.9
2023-04-09T13:55:25.036Z,45.4
2023-04-09T13:57:51.140Z,45.9
2023-04-09T14:00:17.407Z,46.3
2023-04-09T14:02:43.326Z,46.7
2023-04-09T14:05:09.425Z,47.8
2023-04-09T14:07:35.516Z,48.4
2023-04-09T14:10:01.616Z,48.6
2023-04-09T14:12:27.704Z,47.4
2023-04-09T14:14:53.789Z,43.9
2023-04-09T14:17:18.899Z,44
2023-04-09T14:19:45.032Z,43.6
2023-04-09T14:22:11.101Z,42.6
2023-04-09T14:24:37.199Z,41.8
2023-04-09T14:27:03.303Z,40.4
2023-04-09T14:29:29.379Z,40.5
2023-04-09T14:31:55.473Z,43.1
2023-04-09T14:34:21.578Z,43.6
2023-04-09T14:36:47.677Z,41.9
2023-04-09T14:39:13.775Z,41.8
2023-04-09T14:41:39.867Z,41.5
2023-04-09T14:44:05.986Z,42.1
2023-04-09T14:46:32.059Z,42.7
2023-04-09T14:48:57.165Z,44.9
2023-04-09T14:51:23.269Z,46.1
2023-04-09T14:53:49.350Z,47.4
2023-04-09T14:56:15.452Z,46.6
2023-04-09T14:58:41.540Z,47.2
2023-04-09T15:01:07.647Z,45.4
2023-04-09T15:03:33.749Z,43.9
2023-04-09T15:05:59.837Z,42.8
2023-04-09T15:08:25.922Z,41.2
2023-04-09T15:10:52.032Z,41.2
2023-04-09T15:13:18.123Z,44
2023-04-09T15:15:44.234Z,44
2023-04-09T15:18:10.318Z,44.3
2023-04-09T15:20:35.429Z,42.4
2023-04-09T15:23:01.533Z,41.9
2023-04-09T15:25:27.629Z,41.5
2023-04-09T15:27:53.705Z,41.4
2023-04-09T15:30:19.809Z,40.8
2023-04-09T15:32:45.893Z,40.9
2023-04-09T15:35:12.002Z,39.3
2023-04-09T15:37:38.088Z,39.7
2023-04-09T15:40:04.181Z,40
2023-04-09T15:42:30.291Z,41
2023-04-09T15:44:56.382Z,39.7
2023-04-09T15:47:22.469Z,40.8
2023-04-09T15:49:48.568Z,39.4
2023-04-09T15:52:13.676Z,39.7
2023-04-09T15:54:39.807Z,39.4
2023-04-09T15:57:05.890Z,39.9
2023-04-09T15:59:31.968Z,40.3
2023-04-09T16:01:58.059Z,40.4
2023-04-09T16:04:24.151Z,40.4
2023-04-09T16:06:50.253Z,41.1
2023-04-09T16:09:16.347Z,40.3
2023-04-09T16:11:42.441Z,40.1
2023-04-09T16:14:08.582Z,40.6
2023-04-09T16:16:34.629Z,40.8
2023-04-09T16:19:00.728Z,41
2023-04-09T16:21:26.812Z,40.6
2023-04-09T16:23:51.938Z,41.4
2023-04-09T16:26:18.031Z,41.4
2023-04-09T16:28:44.121Z,41.2
2023-04-09T16:31:10.214Z,41.4
2023-04-09T16:33:36.314Z,41
2023-04-09T16:36:02.404Z,41.1
2023-04-09T16:38:28.489Z,41.7
2023-04-09T16:40:54.600Z,42.1
2023-04-09T16:43:20.672Z,41.7
2023-04-09T16:45:46.785Z,42.3
2023-04-09T16:48:12.872Z,42.4
2023-04-09T16:50:38.969Z,42.9
2023-04-09T16:53:05.075Z,42.8
2023-04-09T16:55:30.211Z,42.8
2023-04-09T16:57:56.285Z,43.3
2023-04-09T17:00:22.367Z,43.1
2023-04-09T17:02:48.475Z,43.9
2023-04-09T17:05:14.542Z,44.9
2023-04-09T17:07:40.666Z,45.9
2023-04-09T17:10:06.802Z,47
2023-04-09T17:12:32.837Z,48
2023-04-09T17:14:58.934Z,47.9
2023-04-09T17:17:25.035Z,48.5
2023-04-09T17:19:51.169Z,48.6
2023-04-09T17:22:17.223Z,48.7
2023-04-09T17:24:43.306Z,49.3
2023-04-09T17:27:08.437Z,50.3
2023-04-09T17:29:34.518Z,49.4
2023-04-09T17:32:00.635Z,49.7
2023-04-09T17:34:26.710Z,50.5
2023-04-09T17:36:52.807Z,50.7
2023-04-09T17:39:18.917Z,50.3
2023-04-09T17:41:45.011Z,50.7
2023-04-09T17:44:11.096Z,50.9
2023-04-09T17:46:37.205Z,51.7
2023-04-09T17:49:03.297Z,52.3
2023-04-09T17:51:29.386Z,52
2023-04-09T17:53:55.494Z,53.7
2023-04-09T17:56:21.575Z,53.5
2023-04-09T17:58:47.812Z,54.6
2023-04-09T18:01:13.883Z,57.2
2023-04-09T18:03:39.972Z,58.4
2023-04-09T18:06:06.069Z,59.6
2023-04-09T18:08:32.175Z,60.1
2023-04-09T18:10:58.270Z,59.9
2023-04-09T18:13:24.381Z,59.8
2023-04-09T18:15:50.460Z,61.3
2023-04-09T18:18:16.582Z,62.6
2023-04-09T18:20:42.658Z,62
2023-04-09T18:23:08.764Z,63.3
2023-04-09T18:25:34.849Z,63.8
2023-04-09T18:28:00.943Z,64.3
2023-04-09T18:30:26.053Z,64.9
2023-04-09T18:32:52.137Z,65.3
2023-04-09T18:35:18.222Z,66.6
2023-04-09T18:37:44.352Z,66.6
2023-04-09T18:40:10.487Z,66.8
2023-04-09T18:42:36.525Z,67.6
2023-04-09T18:45:02.638Z,67.8
2023-04-09T18:47:28.713Z,68.1
2023-04-09T18:49:54.808Z,68.4
2023-04-09T18:52:20.911Z,69.3
2023-04-09T18:54:47.004Z,69.9
2023-04-09T18:57:13.113Z,70.5
2023-04-09T18:59:39.200Z,71.5
2023-04-09T19:04:30.638Z,72.4
2023-04-09T19:06:56.491Z,73
2023-04-09T19:09:22.584Z,73.4
2023-04-09T19:11:48.692Z,74
2023-04-09T19:14:14.778Z,74.9
2023-04-09T19:16:40.876Z,75.3
2023-04-09T19:19:06.984Z,75.8
2023-04-09T19:21:33.097Z,76.4
2023-04-09T19:23:59.164Z,76.9
2023-04-09T19:26:25.267Z,77.5
2023-04-09T19:28:51.353Z,78.3
2023-04-09T19:31:17.474Z,78.4
2023-04-09T19:33:42.567Z,78.4
2023-04-09T19:36:08.670Z,78.8
2023-04-09T19:38:34.751Z,79
2023-04-09T19:41:00.855Z,79.2
2023-04-09T19:43:26.931Z,78.8
2023-04-09T19:45:53.045Z,78.8
2023-04-09T19:48:18.160Z,79.4
2023-04-09T19:50:44.257Z,79
2023-04-09T19:53:10.359Z,78.8
2023-04-09T19:55:36.446Z,78.2
2023-04-09T19:58:02.534Z,79.3
2023-04-09T20:00:28.636Z,79.4
2023-04-09T20:02:54.747Z,79.2
2023-04-09T20:05:20.816Z,79.2
2023-04-09T20:07:46.927Z,79.4
2023-04-09T20:10:13.034Z,79.8
2023-04-09T20:12:39.125Z,79.9
2023-04-09T20:15:05.212Z,80.1
2023-04-09T20:17:31.315Z,80
2023-04-09T20:19:56.411Z,80.5
2023-04-09T20:22:22.504Z,80.3
2023-04-09T20:24:48.608Z,80.7
2023-04-09T20:27:14.719Z,80.7
2023-04-09T20:29:40.809Z,80.8
2023-04-09T20:32:06.970Z,81
2023-04-09T20:34:32.986Z,81.5
2023-04-09T20:36:59.130Z,81.8
2023-04-09T20:39:25.178Z,82.8
2023-04-09T20:41:51.287Z,82.8
2023-04-09T20:44:17.366Z,83.1
2023-04-09T20:46:43.480Z,83.1
2023-04-09T20:49:09.559Z,83.6
2023-04-09T20:51:34.673Z,83.8
2023-04-09T20:54:00.776Z,84.3
2023-04-09T20:56:26.875Z,84.3
2023-04-09T20:58:52.952Z,84.7
2023-04-09T21:01:19.065Z,84.8
2023-04-09T21:03:45.165Z,85.3
2023-04-09T21:06:11.257Z,85.7
2023-04-09T21:08:37.350Z,85.6
2023-04-09T21:11:03.492Z,85.6
2023-04-09T21:13:29.552Z,86.1
2023-04-09T21:15:55.628Z,86.4
2023-04-09T21:18:21.732Z,86.2
2023-04-09T21:20:47.820Z,86.1
2023-04-09T21:23:12.931Z,86.1
2023-04-09T21:25:39.044Z,86.2
2023-04-09T21:28:05.141Z,86
2023-04-09T21:30:31.226Z,86
2023-04-09T21:32:57.342Z,85.8
2023-04-09T21:35:23.436Z,86.5
2023-04-09T21:37:49.556Z,86.5
2023-04-09T21:40:15.613Z,86.7
2023-04-09T21:42:41.712Z,87.1
2023-04-09T21:45:07.832Z,87.1
2023-04-09T21:47:33.902Z,87.6
2023-04-09T21:50:00.025Z,88
2023-04-09T21:52:26.114Z,87.9
2023-04-09T21:54:51.219Z,87.9
2023-04-09T21:57:17.311Z,87.9
2023-04-09T21:59:43.391Z,87.9
2023-04-09T22:02:09.543Z,88.3
2023-04-09T22:04:35.600Z,88.3
2023-04-09T22:07:01.701Z,88.4
2023-04-09T22:09:27.822Z,88.7
2023-04-09T22:11:53.881Z,89
2023-04-09T22:14:19.986Z,89.2
2023-04-09T22:16:46.075Z,89.6
2023-04-09T22:19:12.258Z,89.9
2023-04-09T22:21:38.327Z,90.2
2023-04-09T22:24:04.369Z,90.3
2023-04-09T22:26:29.524Z,90.4
2023-04-09T22:28:55.605Z,90.6
2023-04-09T22:31:21.667Z,90.6
2023-04-09T22:33:47.768Z,90.8
2023-04-09T22:36:13.843Z,90.8
2023-04-09T22:38:39.950Z,90.8
2023-04-09T22:41:06.112Z,90.8
2023-04-09T22:43:32.151Z,90.8
2023-04-09T22:45:58.221Z,90.7
2023-04-09T22:48:24.324Z,90.6
2023-04-09T22:50:50.436Z,90
2023-04-09T22:53:16.536Z,89.7
2023-04-09T22:55:42.613Z,90.3
2023-04-09T22:58:07.724Z,90.8
2023-04-09T23:00:33.833Z,91.1
2023-04-09T23:02:59.925Z,91.3
2023-04-09T23:05:26.018Z,91.8
2023-04-09T23:07:52.134Z,92.1
2023-04-09T23:10:18.202Z,92.2
2023-04-09T23:12:44.291Z,92.2
2023-04-09T23:15:10.395Z,92.3
2023-04-09T23:17:36.483Z,92.4
2023-04-09T23:20:02.578Z,92.6
2023-04-09T23:22:28.692Z,92.8
2023-04-09T23:24:54.777Z,92.9
2023-04-09T23:27:20.947Z,93.2
2023-04-09T23:29:45.964Z,93.1
2023-04-09T23:32:12.077Z,93.3
2023-04-09T23:34:38.187Z,93.2
2023-04-09T23:37:04.289Z,93.3
2023-04-09T23:39:30.451Z,93.6
2023-04-09T23:41:56.463Z,93.9
2023-04-09T23:44:22.538Z,93.8
2023-04-09T23:46:48.640Z,93.7
2023-04-09T23:49:14.751Z,93.7
2023-04-09T23:51:40.838Z,93.5
2023-04-09T23:54:06.943Z,93
2023-04-09T23:56:33.070Z,93
2023-04-09T23:58:59.119Z,93.7
